sensor_id;sensor_type;location;lat;lon;timestamp;temperature;humidity
12907;DHT22;6521;50.498;8.474;2023-03-07T00:02:05;1.20;84.70
12907;DHT22;6521;50.498;8.474;2023-03-07T00:04:36;1.13;84.88
12907;DHT22;6521;50.498;8.474;2023-03-07T00:07:06;1.14;85.09
12907;DHT22;6521;50.498;8.474;2023-03-07T00:09:37;1.13;85.50
12907;DHT22;6521;50.498;8.474;2023-03-07T00:12:09;1.17;85.75
12907;DHT22;6521;50.498;8.474;2023-03-07T00:14:40;1.16;86.02
12907;DHT22;6521;50.498;8.474;2023-03-07T00:17:11;1.10;86.32
12907;DHT22;6521;50.498;8.474;2023-03-07T00:19:42;1.13;86.44
12907;DHT22;6521;50.498;8.474;2023-03-07T00:22:13;1.14;86.59
12907;DHT22;6521;50.498;8.474;2023-03-07T00:24:46;1.10;86.80
12907;DHT22;6521;50.498;8.474;2023-03-07T00:27:18;1.07;86.85
12907;DHT22;6521;50.498;8.474;2023-03-07T00:29:49;1.08;87.03
12907;DHT22;6521;50.498;8.474;2023-03-07T00:32:19;1.08;87.05
12907;DHT22;6521;50.498;8.474;2023-03-07T00:34:51;1.11;87.12
12907;DHT22;6521;50.498;8.474;2023-03-07T00:37:21;1.05;87.14
12907;DHT22;6521;50.498;8.474;2023-03-07T00:39:52;1.13;87.13
12907;DHT22;6521;50.498;8.474;2023-03-07T00:42:23;1.14;87.26
12907;DHT22;6521;50.498;8.474;2023-03-07T00:44:54;1.11;87.22
12907;DHT22;6521;50.498;8.474;2023-03-07T00:47:25;1.16;87.14
12907;DHT22;6521;50.498;8.474;2023-03-07T00:49:57;1.20;87.18
12907;DHT22;6521;50.498;8.474;2023-03-07T00:52:28;1.17;87.25
12907;DHT22;6521;50.498;8.474;2023-03-07T00:54:59;1.21;87.28
12907;DHT22;6521;50.498;8.474;2023-03-07T00:57:30;1.26;87.37
12907;DHT22;6521;50.498;8.474;2023-03-07T01:00:01;1.26;87.39
12907;DHT22;6521;50.498;8.474;2023-03-07T01:02:32;1.27;87.64
12907;DHT22;6521;50.498;8.474;2023-03-07T01:05:03;1.30;87.53
12907;DHT22;6521;50.498;8.474;2023-03-07T01:07:34;1.27;87.71
12907;DHT22;6521;50.498;8.474;2023-03-07T01:10:05;1.26;88.05
12907;DHT22;6521;50.498;8.474;2023-03-07T01:12:36;1.24;88.16
12907;DHT22;6521;50.498;8.474;2023-03-07T01:15:07;1.26;88.33
12907;DHT22;6521;50.498;8.474;2023-03-07T01:17:38;1.21;88.58
12907;DHT22;6521;50.498;8.474;2023-03-07T01:20:10;1.20;88.78
12907;DHT22;6521;50.498;8.474;2023-03-07T01:22:41;1.21;89.17
12907;DHT22;6521;50.498;8.474;2023-03-07T01:25:14;1.20;89.43
12907;DHT22;6521;50.498;8.474;2023-03-07T01:27:45;1.20;89.58
12907;DHT22;6521;50.498;8.474;2023-03-07T01:30:16;1.19;89.71
12907;DHT22;6521;50.498;8.474;2023-03-07T01:32:47;1.17;89.90
12907;DHT22;6521;50.498;8.474;2023-03-07T01:35:19;1.16;90.17
12907;DHT22;6521;50.498;8.474;2023-03-07T01:37:52;1.17;90.25
12907;DHT22;6521;50.498;8.474;2023-03-07T01:40:23;1.20;90.29
12907;DHT22;6521;50.498;8.474;2023-03-07T01:43:28;1.21;90.32
12907;DHT22;6521;50.498;8.474;2023-03-07T01:49:15;1.23;90.77
12907;DHT22;6521;50.498;8.474;2023-03-07T01:51:51;1.23;90.82
12907;DHT22;6521;50.498;8.474;2023-03-07T01:54:24;1.19;90.87
12907;DHT22;6521;50.498;8.474;2023-03-07T01:56:57;1.19;91.09
12907;DHT22;6521;50.498;8.474;2023-03-07T01:59:31;1.19;91.30
12907;DHT22;6521;50.498;8.474;2023-03-07T02:02:06;1.24;91.30
12907;DHT22;6521;50.498;8.474;2023-03-07T02:04:43;1.26;91.41
12907;DHT22;6521;50.498;8.474;2023-03-07T02:07:19;1.30;91.42
12907;DHT22;6521;50.498;8.474;2023-03-07T02:09:52;1.31;91.46
12907;DHT22;6521;50.498;8.474;2023-03-07T02:12:23;1.34;91.50
12907;DHT22;6521;50.498;8.474;2023-03-07T02:14:54;1.32;91.51
12907;DHT22;6521;50.498;8.474;2023-03-07T02:17:26;1.35;91.50
12907;DHT22;6521;50.498;8.474;2023-03-07T02:22:54;1.40;91.60
12907;DHT22;6521;50.498;8.474;2023-03-07T02:28:15;1.41;91.70
12907;DHT22;6521;50.498;8.474;2023-03-07T02:31:01;1.44;91.65
12907;DHT22;6521;50.498;8.474;2023-03-07T02:33:36;1.45;91.77
12907;DHT22;6521;50.498;8.474;2023-03-07T02:36:27;1.45;91.70
12907;DHT22;6521;50.498;8.474;2023-03-07T02:39:08;1.49;91.70
12907;DHT22;6521;50.498;8.474;2023-03-07T02:41:39;1.48;91.73
12907;DHT22;6521;50.498;8.474;2023-03-07T02:44:19;1.48;91.82
12907;DHT22;6521;50.498;8.474;2023-03-07T02:46:50;1.49;91.84
12907;DHT22;6521;50.498;8.474;2023-03-07T02:49:22;1.51;91.72
12907;DHT22;6521;50.498;8.474;2023-03-07T02:51:53;1.56;91.69
12907;DHT22;6521;50.498;8.474;2023-03-07T02:54:30;1.56;91.72
12907;DHT22;6521;50.498;8.474;2023-03-07T02:57:02;1.62;91.59
12907;DHT22;6521;50.498;8.474;2023-03-07T02:59:34;1.61;91.56
12907;DHT22;6521;50.498;8.474;2023-03-07T03:02:06;1.62;91.59
12907;DHT22;6521;50.498;8.474;2023-03-07T03:04:36;1.62;91.54
12907;DHT22;6521;50.498;8.474;2023-03-07T03:07:07;1.63;91.54
12907;DHT22;6521;50.498;8.474;2023-03-07T03:09:39;1.61;91.59
12907;DHT22;6521;50.498;8.474;2023-03-07T03:12:10;1.61;91.79
12907;DHT22;6521;50.498;8.474;2023-03-07T03:14:41;1.58;91.68
12907;DHT22;6521;50.498;8.474;2023-03-07T03:17:12;1.62;91.66
12907;DHT22;6521;50.498;8.474;2023-03-07T03:19:43;1.58;91.82
12907;DHT22;6521;50.498;8.474;2023-03-07T03:22:14;1.62;91.80
12907;DHT22;6521;50.498;8.474;2023-03-07T03:24:49;1.61;91.71
12907;DHT22;6521;50.498;8.474;2023-03-07T03:27:22;1.59;91.93
12907;DHT22;6521;50.498;8.474;2023-03-07T03:29:55;1.63;91.73
12907;DHT22;6521;50.498;8.474;2023-03-07T03:32:26;1.62;91.64
12907;DHT22;6521;50.498;8.474;2023-03-07T03:34:58;1.65;91.81
12907;DHT22;6521;50.498;8.474;2023-03-07T03:37:30;1.65;91.75
12907;DHT22;6521;50.498;8.474;2023-03-07T03:40:01;1.61;91.92
12907;DHT22;6521;50.498;8.474;2023-03-07T03:42:35;1.59;92.02
12907;DHT22;6521;50.498;8.474;2023-03-07T03:45:07;1.65;91.91
12907;DHT22;6521;50.498;8.474;2023-03-07T03:47:39;1.66;91.88
12907;DHT22;6521;50.498;8.474;2023-03-07T03:50:10;1.66;92.01
12907;DHT22;6521;50.498;8.474;2023-03-07T03:52:42;1.63;92.02
12907;DHT22;6521;50.498;8.474;2023-03-07T03:55:15;1.65;91.98
12907;DHT22;6521;50.498;8.474;2023-03-07T03:57:45;1.66;91.88
12907;DHT22;6521;50.498;8.474;2023-03-07T04:00:17;1.68;92.04
12907;DHT22;6521;50.498;8.474;2023-03-07T04:02:50;1.68;91.96
12907;DHT22;6521;50.498;8.474;2023-03-07T04:05:22;1.69;92.05
12907;DHT22;6521;50.498;8.474;2023-03-07T04:07:52;1.72;92.05
12907;DHT22;6521;50.498;8.474;2023-03-07T04:10:24;1.82;91.88
12907;DHT22;6521;50.498;8.474;2023-03-07T04:12:54;1.85;91.72
12907;DHT22;6521;50.498;8.474;2023-03-07T04:15:25;1.86;91.57
12907;DHT22;6521;50.498;8.474;2023-03-07T04:17:56;1.83;91.62
12907;DHT22;6521;50.498;8.474;2023-03-07T04:20:27;1.85;91.63
12907;DHT22;6521;50.498;8.474;2023-03-07T04:22:58;1.95;91.30
12907;DHT22;6521;50.498;8.474;2023-03-07T04:25:28;1.98;91.09
12907;DHT22;6521;50.498;8.474;2023-03-07T04:27:59;2.05;90.87
12907;DHT22;6521;50.498;8.474;2023-03-07T04:30:30;2.07;90.71
12907;DHT22;6521;50.498;8.474;2023-03-07T04:33:01;2.06;90.68
12907;DHT22;6521;50.498;8.474;2023-03-07T04:35:32;2.09;90.60
12907;DHT22;6521;50.498;8.474;2023-03-07T04:38:04;2.14;90.43
12907;DHT22;6521;50.498;8.474;2023-03-07T04:40:36;2.16;90.33
12907;DHT22;6521;50.498;8.474;2023-03-07T04:43:07;2.17;90.41
12907;DHT22;6521;50.498;8.474;2023-03-07T04:45:38;2.21;90.00
12907;DHT22;6521;50.498;8.474;2023-03-07T04:48:09;2.24;89.99
12907;DHT22;6521;50.498;8.474;2023-03-07T04:50:41;2.19;90.01
12907;DHT22;6521;50.498;8.474;2023-03-07T04:53:12;2.27;89.53
12907;DHT22;6521;50.498;8.474;2023-03-07T04:55:43;2.23;89.55
12907;DHT22;6521;50.498;8.474;2023-03-07T04:58:21;2.28;89.40
12907;DHT22;6521;50.498;8.474;2023-03-07T05:00:52;2.33;89.01
12907;DHT22;6521;50.498;8.474;2023-03-07T05:03:24;2.28;88.99
12907;DHT22;6521;50.498;8.474;2023-03-07T05:06:00;2.27;89.18
12907;DHT22;6521;50.498;8.474;2023-03-07T05:08:32;2.34;88.71
12907;DHT22;6521;50.498;8.474;2023-03-07T05:11:04;2.33;88.42
12907;DHT22;6521;50.498;8.474;2023-03-07T05:13:35;2.34;88.40
12907;DHT22;6521;50.498;8.474;2023-03-07T05:16:06;2.34;88.31
12907;DHT22;6521;50.498;8.474;2023-03-07T05:18:37;2.30;88.27
12907;DHT22;6521;50.498;8.474;2023-03-07T05:21:09;2.30;88.44
12907;DHT22;6521;50.498;8.474;2023-03-07T05:23:40;2.28;88.44
12907;DHT22;6521;50.498;8.474;2023-03-07T05:26:12;2.28;88.65
12907;DHT22;6521;50.498;8.474;2023-03-07T05:28:43;2.33;88.46
12907;DHT22;6521;50.498;8.474;2023-03-07T05:31:14;2.33;88.29
12907;DHT22;6521;50.498;8.474;2023-03-07T05:33:44;2.36;88.30
12907;DHT22;6521;50.498;8.474;2023-03-07T05:36:16;2.33;88.31
12907;DHT22;6521;50.498;8.474;2023-03-07T05:38:48;2.28;88.58
12907;DHT22;6521;50.498;8.474;2023-03-07T05:41:19;2.34;88.47
12907;DHT22;6521;50.498;8.474;2023-03-07T05:43:50;2.34;88.14
12907;DHT22;6521;50.498;8.474;2023-03-07T05:46:21;2.34;88.06
12907;DHT22;6521;50.498;8.474;2023-03-07T05:48:52;2.33;88.26
12907;DHT22;6521;50.498;8.474;2023-03-07T05:51:23;2.36;88.42
12907;DHT22;6521;50.498;8.474;2023-03-07T05:53:53;2.38;88.04
12907;DHT22;6521;50.498;8.474;2023-03-07T05:56:25;2.37;88.04
12907;DHT22;6521;50.498;8.474;2023-03-07T05:58:56;2.33;88.17
12907;DHT22;6521;50.498;8.474;2023-03-07T06:01:27;2.34;88.28
12907;DHT22;6521;50.498;8.474;2023-03-07T06:04:00;2.38;87.82
12907;DHT22;6521;50.498;8.474;2023-03-07T06:06:31;2.42;87.68
12907;DHT22;6521;50.498;8.474;2023-03-07T06:09:03;2.38;87.78
12907;DHT22;6521;50.498;8.474;2023-03-07T06:11:35;2.37;87.78
12907;DHT22;6521;50.498;8.474;2023-03-07T06:14:07;2.38;87.63
12907;DHT22;6521;50.498;8.474;2023-03-07T06:16:38;2.44;87.54
12907;DHT22;6521;50.498;8.474;2023-03-07T06:19:09;2.45;87.26
12907;DHT22;6521;50.498;8.474;2023-03-07T06:21:41;2.50;87.02
12907;DHT22;6521;50.498;8.474;2023-03-07T06:24:12;2.52;86.52
12907;DHT22;6521;50.498;8.474;2023-03-07T06:26:43;2.54;86.81
12907;DHT22;6521;50.498;8.474;2023-03-07T06:29:14;2.58;86.40
12907;DHT22;6521;50.498;8.474;2023-03-07T06:31:45;2.57;86.46
12907;DHT22;6521;50.498;8.474;2023-03-07T06:34:17;2.58;86.21
12907;DHT22;6521;50.498;8.474;2023-03-07T06:36:49;2.59;85.97
12907;DHT22;6521;50.498;8.474;2023-03-07T06:39:20;2.59;85.92
12907;DHT22;6521;50.498;8.474;2023-03-07T06:41:52;2.58;85.75
12907;DHT22;6521;50.498;8.474;2023-03-07T06:44:23;2.62;85.77
12907;DHT22;6521;50.498;8.474;2023-03-07T06:46:54;2.66;85.57
12907;DHT22;6521;50.498;8.474;2023-03-07T06:49:26;2.68;85.45
12907;DHT22;6521;50.498;8.474;2023-03-07T06:51:57;2.71;85.45
12907;DHT22;6521;50.498;8.474;2023-03-07T06:54:28;2.74;84.91
12907;DHT22;6521;50.498;8.474;2023-03-07T06:56:59;2.75;84.81
12907;DHT22;6521;50.498;8.474;2023-03-07T06:59:30;2.77;84.71
12907;DHT22;6521;50.498;8.474;2023-03-07T07:02:01;2.74;84.61
12907;DHT22;6521;50.498;8.474;2023-03-07T07:04:33;2.79;84.35
12907;DHT22;6521;50.498;8.474;2023-03-07T07:07:03;2.82;84.49
12907;DHT22;6521;50.498;8.474;2023-03-07T07:09:35;2.87;84.09
12907;DHT22;6521;50.498;8.474;2023-03-07T07:12:06;2.91;84.30
12907;DHT22;6521;50.498;8.474;2023-03-07T07:14:38;2.92;83.89
12907;DHT22;6521;50.498;8.474;2023-03-07T07:17:10;2.96;83.70
12907;DHT22;6521;50.498;8.474;2023-03-07T07:19:40;3.02;83.67
12907;DHT22;6521;50.498;8.474;2023-03-07T07:22:14;3.09;83.12
12907;DHT22;6521;50.498;8.474;2023-03-07T07:24:47;3.09;82.52
12907;DHT22;6521;50.498;8.474;2023-03-07T07:27:18;3.06;82.70
12907;DHT22;6521;50.498;8.474;2023-03-07T07:29:49;3.08;82.72
12907;DHT22;6521;50.498;8.474;2023-03-07T07:32:20;3.13;82.95
12907;DHT22;6521;50.498;8.474;2023-03-07T07:34:51;3.17;82.77
12907;DHT22;6521;50.498;8.474;2023-03-07T07:37:22;3.23;82.13
12907;DHT22;6521;50.498;8.474;2023-03-07T07:39:53;3.24;81.90
12907;DHT22;6521;50.498;8.474;2023-03-07T07:42:24;3.26;82.15
12907;DHT22;6521;50.498;8.474;2023-03-07T07:45:22;3.37;82.18
12907;DHT22;6521;50.498;8.474;2023-03-07T07:47:53;3.43;81.56
12907;DHT22;6521;50.498;8.474;2023-03-07T07:50:25;3.46;81.10
12907;DHT22;6521;50.498;8.474;2023-03-07T07:52:56;3.57;80.88
12907;DHT22;6521;50.498;8.474;2023-03-07T07:55:28;3.63;80.43
12907;DHT22;6521;50.498;8.474;2023-03-07T07:57:59;3.67;80.44
12907;DHT22;6521;50.498;8.474;2023-03-07T08:00:31;3.73;80.45
12907;DHT22;6521;50.498;8.474;2023-03-07T08:03:02;3.77;79.51
12907;DHT22;6521;50.498;8.474;2023-03-07T08:05:33;3.77;79.66
12907;DHT22;6521;50.498;8.474;2023-03-07T08:08:04;3.88;79.70
12907;DHT22;6521;50.498;8.474;2023-03-07T08:10:35;3.89;79.38
12907;DHT22;6521;50.498;8.474;2023-03-07T08:13:06;3.94;79.28
12907;DHT22;6521;50.498;8.474;2023-03-07T08:15:37;4.02;78.48
12907;DHT22;6521;50.498;8.474;2023-03-07T08:18:08;4.05;77.68
12907;DHT22;6521;50.498;8.474;2023-03-07T08:20:42;4.10;77.97
12907;DHT22;6521;50.498;8.474;2023-03-07T08:23:13;4.18;76.96
12907;DHT22;6521;50.498;8.474;2023-03-07T08:25:43;4.20;77.56
12907;DHT22;6521;50.498;8.474;2023-03-07T08:28:14;4.29;76.38
12907;DHT22;6521;50.498;8.474;2023-03-07T08:30:45;4.32;76.94
12907;DHT22;6521;50.498;8.474;2023-03-07T08:33:16;4.42;76.74
12907;DHT22;6521;50.498;8.474;2023-03-07T08:35:46;4.45;75.38
12907;DHT22;6521;50.498;8.474;2023-03-07T08:38:17;4.58;75.49
12907;DHT22;6521;50.498;8.474;2023-03-07T08:40:48;4.68;76.16
12907;DHT22;6521;50.498;8.474;2023-03-07T08:43:19;4.78;75.30
12907;DHT22;6521;50.498;8.474;2023-03-07T08:45:50;4.80;73.86
12907;DHT22;6521;50.498;8.474;2023-03-07T08:48:22;4.88;75.36
12907;DHT22;6521;50.498;8.474;2023-03-07T08:50:53;4.91;73.94
12907;DHT22;6521;50.498;8.474;2023-03-07T08:53:24;4.84;73.57
12907;DHT22;6521;50.498;8.474;2023-03-07T08:55:55;4.87;73.41
12907;DHT22;6521;50.498;8.474;2023-03-07T08:58:26;4.84;72.40
12907;DHT22;6521;50.498;8.474;2023-03-07T09:00:57;4.84;73.86
12907;DHT22;6521;50.498;8.474;2023-03-07T09:03:28;4.97;74.40
12907;DHT22;6521;50.498;8.474;2023-03-07T09:05:59;4.99;73.70
12907;DHT22;6521;50.498;8.474;2023-03-07T09:08:30;5.02;73.29
12907;DHT22;6521;50.498;8.474;2023-03-07T09:11:01;5.02;72.66
12907;DHT22;6521;50.498;8.474;2023-03-07T09:13:34;5.01;72.41
12907;DHT22;6521;50.498;8.474;2023-03-07T09:16:06;4.95;72.07
12907;DHT22;6521;50.498;8.474;2023-03-07T09:18:37;4.88;72.47
12907;DHT22;6521;50.498;8.474;2023-03-07T09:21:08;4.92;73.01
12907;DHT22;6521;50.498;8.474;2023-03-07T09:23:38;5.02;73.28
12907;DHT22;6521;50.498;8.474;2023-03-07T09:26:09;5.05;72.38
12907;DHT22;6521;50.498;8.474;2023-03-07T09:28:40;5.07;72.93
12907;DHT22;6521;50.498;8.474;2023-03-07T09:31:12;5.08;72.84
12907;DHT22;6521;50.498;8.474;2023-03-07T09:33:44;5.14;74.02
12907;DHT22;6521;50.498;8.474;2023-03-07T09:36:15;5.18;72.47
12907;DHT22;6521;50.498;8.474;2023-03-07T09:38:47;5.12;73.01
12907;DHT22;6521;50.498;8.474;2023-03-07T09:47:53;4.87;75.35
12907;DHT22;6521;50.498;8.474;2023-03-07T09:50:40;4.80;75.38
12907;DHT22;6521;50.498;8.474;2023-03-07T09:53:23;4.67;76.24
12907;DHT22;6521;50.498;8.474;2023-03-07T09:56:00;4.66;76.66
12907;DHT22;6521;50.498;8.474;2023-03-07T09:58:34;4.63;78.17
12907;DHT22;6521;50.498;8.474;2023-03-07T10:01:09;4.49;77.72
12907;DHT22;6521;50.498;8.474;2023-03-07T10:04:00;4.43;79.43
12907;DHT22;6521;50.498;8.474;2023-03-07T10:06:40;4.46;80.00
12907;DHT22;6521;50.498;8.474;2023-03-07T10:09:18;4.46;79.86
12907;DHT22;6521;50.498;8.474;2023-03-07T10:12:13;4.57;79.37
12907;DHT22;6521;50.498;8.474;2023-03-07T10:16:01;4.53;77.98
12907;DHT22;6521;50.498;8.474;2023-03-07T10:28:51;4.52;78.45
12907;DHT22;6521;50.498;8.474;2023-03-07T10:31:31;4.46;79.16
12907;DHT22;6521;50.498;8.474;2023-03-07T10:34:14;4.40;79.99
12907;DHT22;6521;50.498;8.474;2023-03-07T10:36:48;4.33;79.46
12907;DHT22;6521;50.498;8.474;2023-03-07T10:39:34;4.28;80.77
12907;DHT22;6521;50.498;8.474;2023-03-07T10:42:11;4.13;80.46
12907;DHT22;6521;50.498;8.474;2023-03-07T10:44:43;4.06;81.47
12907;DHT22;6521;50.498;8.474;2023-03-07T10:47:26;4.02;81.31
12907;DHT22;6521;50.498;8.474;2023-03-07T10:52:54;4.16;81.20
12907;DHT22;6521;50.498;8.474;2023-03-07T10:55:40;4.23;81.09
12907;DHT22;6521;50.498;8.474;2023-03-07T10:58:25;4.30;79.50
12907;DHT22;6521;50.498;8.474;2023-03-07T11:01:01;4.35;79.75
12907;DHT22;6521;50.498;8.474;2023-03-07T11:03:56;4.53;79.59
12907;DHT22;6521;50.498;8.474;2023-03-07T11:06:32;4.66;79.22
12907;DHT22;6521;50.498;8.474;2023-03-07T11:09:16;4.78;78.71
12907;DHT22;6521;50.498;8.474;2023-03-07T11:11:49;5.01;78.03
12907;DHT22;6521;50.498;8.474;2023-03-07T11:14:21;5.29;78.27
12907;DHT22;6521;50.498;8.474;2023-03-07T11:17:00;5.55;76.01
12907;DHT22;6521;50.498;8.474;2023-03-07T11:19:37;5.70;75.59
12907;DHT22;6521;50.498;8.474;2023-03-07T11:22:25;5.97;75.48
12907;DHT22;6521;50.498;8.474;2023-03-07T11:27:46;6.34;72.95
12907;DHT22;6521;50.498;8.474;2023-03-07T11:30:27;6.41;70.68
12907;DHT22;6521;50.498;8.474;2023-03-07T11:33:18;6.34;70.57
12907;DHT22;6521;50.498;8.474;2023-03-07T11:36:07;6.25;71.23
12907;DHT22;6521;50.498;8.474;2023-03-07T11:49:43;6.82;68.98
12907;DHT22;6521;50.498;8.474;2023-03-07T11:52:56;6.63;68.78
12907;DHT22;6521;50.498;8.474;2023-03-07T11:56:12;6.53;69.51
12907;DHT22;6521;50.498;8.474;2023-03-07T12:01:49;6.72;69.56
12907;DHT22;6521;50.498;8.474;2023-03-07T12:07:21;6.32;69.52
12907;DHT22;6521;50.498;8.474;2023-03-07T12:10:26;6.14;69.73
12907;DHT22;6521;50.498;8.474;2023-03-07T12:13:05;6.21;70.74
12907;DHT22;6521;50.498;8.474;2023-03-07T12:16:05;6.32;70.05
12907;DHT22;6521;50.498;8.474;2023-03-07T12:24:45;6.90;68.34
12907;DHT22;6521;50.498;8.474;2023-03-07T12:27:46;7.13;67.32
12907;DHT22;6521;50.498;8.474;2023-03-07T12:30:22;7.31;66.15
12907;DHT22;6521;50.498;8.474;2023-03-07T12:32:54;7.13;66.66
12907;DHT22;6521;50.498;8.474;2023-03-07T12:35:30;7.17;67.36
12907;DHT22;6521;50.498;8.474;2023-03-07T12:38:13;7.21;66.77
12907;DHT22;6521;50.498;8.474;2023-03-07T12:41:00;7.14;68.12
12907;DHT22;6521;50.498;8.474;2023-03-07T12:43:36;6.97;67.24
12907;DHT22;6521;50.498;8.474;2023-03-07T12:46:11;6.84;67.85
12907;DHT22;6521;50.498;8.474;2023-03-07T12:48:53;6.77;69.38
12907;DHT22;6521;50.498;8.474;2023-03-07T12:51:31;6.72;68.69
12907;DHT22;6521;50.498;8.474;2023-03-07T12:54:09;6.57;68.51
12907;DHT22;6521;50.498;8.474;2023-03-07T12:59:23;6.49;69.30
12907;DHT22;6521;50.498;8.474;2023-03-07T13:02:01;6.39;68.77
12907;DHT22;6521;50.498;8.474;2023-03-07T13:04:37;6.31;68.53
12907;DHT22;6521;50.498;8.474;2023-03-07T13:07:11;6.31;68.89
12907;DHT22;6521;50.498;8.474;2023-03-07T13:09:44;6.36;68.78
12907;DHT22;6521;50.498;8.474;2023-03-07T13:14:58;6.32;67.68
12907;DHT22;6521;50.498;8.474;2023-03-07T13:27:54;6.41;67.14
12907;DHT22;6521;50.498;8.474;2023-03-07T13:30:30;6.44;67.06
12907;DHT22;6521;50.498;8.474;2023-03-07T13:33:03;6.49;67.70
12907;DHT22;6521;50.498;8.474;2023-03-07T13:35:56;6.46;67.84
12907;DHT22;6521;50.498;8.474;2023-03-07T13:38:41;6.44;67.40
12907;DHT22;6521;50.498;8.474;2023-03-07T13:41:43;6.32;68.03
12907;DHT22;6521;50.498;8.474;2023-03-07T13:44:40;6.31;68.15
12907;DHT22;6521;50.498;8.474;2023-03-07T13:47:43;6.26;67.75
12907;DHT22;6521;50.498;8.474;2023-03-07T13:55:48;6.07;68.19
12907;DHT22;6521;50.498;8.474;2023-03-07T14:00:58;5.98;68.99
12907;DHT22;6521;50.498;8.474;2023-03-07T14:03:34;5.95;68.55
12907;DHT22;6521;50.498;8.474;2023-03-07T14:06:15;5.97;68.73
12907;DHT22;6521;50.498;8.474;2023-03-07T14:08:49;5.97;69.03
12907;DHT22;6521;50.498;8.474;2023-03-07T14:11:46;5.94;69.77
12907;DHT22;6521;50.498;8.474;2023-03-07T14:15:21;5.95;70.31
12907;DHT22;6521;50.498;8.474;2023-03-07T14:24:05;5.76;70.12
12907;DHT22;6521;50.498;8.474;2023-03-07T14:26:44;5.69;70.55
12907;DHT22;6521;50.498;8.474;2023-03-07T14:29:19;5.67;70.66
12907;DHT22;6521;50.498;8.474;2023-03-07T14:31:54;5.69;70.43
12907;DHT22;6521;50.498;8.474;2023-03-07T14:34:32;5.71;70.22
12907;DHT22;6521;50.498;8.474;2023-03-07T14:37:04;5.76;70.42
12907;DHT22;6521;50.498;8.474;2023-03-07T14:42:40;5.84;70.95
12907;DHT22;6521;50.498;8.474;2023-03-07T14:45:28;5.94;69.67
12907;DHT22;6521;50.498;8.474;2023-03-07T14:48:14;5.91;70.11
12907;DHT22;6521;50.498;8.474;2023-03-07T14:50:48;5.90;69.99
12907;DHT22;6521;50.498;8.474;2023-03-07T14:53:22;5.86;69.38
12907;DHT22;6521;50.498;8.474;2023-03-07T14:55:56;5.86;69.27
12907;DHT22;6521;50.498;8.474;2023-03-07T14:58:30;5.86;69.43
12907;DHT22;6521;50.498;8.474;2023-03-07T15:01:12;5.86;69.39
12907;DHT22;6521;50.498;8.474;2023-03-07T15:03:49;5.84;69.15
12907;DHT22;6521;50.498;8.474;2023-03-07T15:06:22;5.87;68.32
12907;DHT22;6521;50.498;8.474;2023-03-07T15:08:57;5.90;69.20
12907;DHT22;6521;50.498;8.474;2023-03-07T15:14:14;5.86;68.59
12907;DHT22;6521;50.498;8.474;2023-03-07T15:16:53;5.86;68.78
12907;DHT22;6521;50.498;8.474;2023-03-07T15:19:30;5.81;69.09
12907;DHT22;6521;50.498;8.474;2023-03-07T15:22:06;5.80;69.22
12907;DHT22;6521;50.498;8.474;2023-03-07T15:24:42;5.78;69.50
12907;DHT22;6521;50.498;8.474;2023-03-07T15:27:19;5.78;69.09
12907;DHT22;6521;50.498;8.474;2023-03-07T15:29:52;5.77;69.19
12907;DHT22;6521;50.498;8.474;2023-03-07T15:32:39;5.77;69.89
12907;DHT22;6521;50.498;8.474;2023-03-07T15:35:16;5.77;70.18
12907;DHT22;6521;50.498;8.474;2023-03-07T15:37:59;5.77;69.52
12907;DHT22;6521;50.498;8.474;2023-03-07T15:40:34;5.73;69.41
12907;DHT22;6521;50.498;8.474;2023-03-07T15:43:23;5.70;69.21
12907;DHT22;6521;50.498;8.474;2023-03-07T15:48:39;5.63;69.34
12907;DHT22;6521;50.498;8.474;2023-03-07T15:51:14;5.62;69.75
12907;DHT22;6521;50.498;8.474;2023-03-07T15:53:57;5.56;70.13
12907;DHT22;6521;50.498;8.474;2023-03-07T15:56:31;5.49;70.48
12907;DHT22;6521;50.498;8.474;2023-03-07T15:59:17;5.47;69.75
12907;DHT22;6521;50.498;8.474;2023-03-07T16:01:48;5.47;70.03
12907;DHT22;6521;50.498;8.474;2023-03-07T16:07:13;5.36;71.22
12907;DHT22;6521;50.498;8.474;2023-03-07T16:09:45;5.35;70.97
12907;DHT22;6521;50.498;8.474;2023-03-07T16:12:19;5.36;71.17
12907;DHT22;6521;50.498;8.474;2023-03-07T16:14:52;5.36;70.81
12907;DHT22;6521;50.498;8.474;2023-03-07T16:19:58;5.26;70.86
12907;DHT22;6521;50.498;8.474;2023-03-07T16:22:29;5.22;71.11
12907;DHT22;6521;50.498;8.474;2023-03-07T16:25:00;5.21;70.97
12907;DHT22;6521;50.498;8.474;2023-03-07T16:27:32;5.19;71.10
12907;DHT22;6521;50.498;8.474;2023-03-07T16:30:27;5.19;71.05
12907;DHT22;6521;50.498;8.474;2023-03-07T16:32:58;5.18;70.40
12907;DHT22;6521;50.498;8.474;2023-03-07T16:35:29;5.15;70.47
12907;DHT22;6521;50.498;8.474;2023-03-07T16:38:00;5.15;70.26
12907;DHT22;6521;50.498;8.474;2023-03-07T16:40:31;5.15;70.19
12907;DHT22;6521;50.498;8.474;2023-03-07T16:43:02;5.14;70.77
12907;DHT22;6521;50.498;8.474;2023-03-07T16:45:33;5.11;70.57
12907;DHT22;6521;50.498;8.474;2023-03-07T16:48:04;5.12;70.83
12907;DHT22;6521;50.498;8.474;2023-03-07T16:50:34;5.18;70.43
12907;DHT22;6521;50.498;8.474;2023-03-07T16:53:05;5.12;70.62
12907;DHT22;6521;50.498;8.474;2023-03-07T16:55:37;5.09;71.11
12907;DHT22;6521;50.498;8.474;2023-03-07T16:58:26;5.09;71.04
12907;DHT22;6521;50.498;8.474;2023-03-07T17:00:58;5.12;70.74
12907;DHT22;6521;50.498;8.474;2023-03-07T17:03:29;5.15;70.62
12907;DHT22;6521;50.498;8.474;2023-03-07T17:06:00;5.11;70.60
12907;DHT22;6521;50.498;8.474;2023-03-07T17:08:30;5.11;70.82
12907;DHT22;6521;50.498;8.474;2023-03-07T17:11:01;5.05;71.23
12907;DHT22;6521;50.498;8.474;2023-03-07T17:13:32;5.12;71.22
12907;DHT22;6521;50.498;8.474;2023-03-07T17:16:03;5.15;70.77
12907;DHT22;6521;50.498;8.474;2023-03-07T17:18:34;5.14;70.96
12907;DHT22;6521;50.498;8.474;2023-03-07T17:21:05;5.12;71.36
12907;DHT22;6521;50.498;8.474;2023-03-07T17:23:36;5.11;71.62
12907;DHT22;6521;50.498;8.474;2023-03-07T17:26:12;5.16;71.25
12907;DHT22;6521;50.498;8.474;2023-03-07T17:28:47;5.12;71.37
12907;DHT22;6521;50.498;8.474;2023-03-07T17:31:19;5.05;72.03
12907;DHT22;6521;50.498;8.474;2023-03-07T17:33:49;5.09;72.48
12907;DHT22;6521;50.498;8.474;2023-03-07T17:36:20;5.08;72.58
12907;DHT22;6521;50.498;8.474;2023-03-07T17:38:51;5.11;72.79
12907;DHT22;6521;50.498;8.474;2023-03-07T17:41:22;5.05;73.07
12907;DHT22;6521;50.498;8.474;2023-03-07T17:43:53;5.02;73.73
12907;DHT22;6521;50.498;8.474;2023-03-07T17:46:25;5.04;74.53
12907;DHT22;6521;50.498;8.474;2023-03-07T17:48:56;4.98;74.84
12907;DHT22;6521;50.498;8.474;2023-03-07T17:51:26;4.91;75.57
12907;DHT22;6521;50.498;8.474;2023-03-07T17:53:59;4.91;75.91
12907;DHT22;6521;50.498;8.474;2023-03-07T17:56:30;4.83;76.89
12907;DHT22;6521;50.498;8.474;2023-03-07T17:59:01;4.74;78.27
12907;DHT22;6521;50.498;8.474;2023-03-07T18:01:33;4.60;79.64
12907;DHT22;6521;50.498;8.474;2023-03-07T18:04:04;4.49;81.13
12907;DHT22;6521;50.498;8.474;2023-03-07T18:06:36;4.40;82.19
12907;DHT22;6521;50.498;8.474;2023-03-07T18:09:07;4.25;82.82
12907;DHT22;6521;50.498;8.474;2023-03-07T18:11:37;3.99;83.34
12907;DHT22;6521;50.498;8.474;2023-03-07T18:14:08;3.77;84.05
12907;DHT22;6521;50.498;8.474;2023-03-07T18:16:40;3.61;84.75
12907;DHT22;6521;50.498;8.474;2023-03-07T18:19:13;3.44;85.36
12907;DHT22;6521;50.498;8.474;2023-03-07T18:21:44;3.37;85.81
12907;DHT22;6521;50.498;8.474;2023-03-07T18:24:17;3.23;86.21
12907;DHT22;6521;50.498;8.474;2023-03-07T18:26:49;3.13;86.17
12907;DHT22;6521;50.498;8.474;2023-03-07T18:29:20;2.99;86.30